Welcome to Northern Hawkes Bay. New Zealand.
PWS Header
      nz Flag



Hit Counter


W3C Valid W3C Valid logo


    Wairoa

Select any of the Stations below to visit their websites.










Historic Data from Weather Underground
Select the location of interest below. Wairoa is the default. Please have patience, this Data is slow to load in.
Northern Hawkes Bay Historical Data
Daily Summary for March 12, 2017 Units:  English    Metric   Both
« Previous Day
Next Day »
Daily Weekly Monthly Yearly Custom
  High: Low: Average:
Temperature: 83.5 °F 63.1 °F 69.6 °F
Dew Point: 71.4 °F 61.7 °F 64.9 °F
Humidity: 99% 51% 87%
Wind Speed: 13.6mph 0mph 3.1mph
Wind Gust: 22.8mph - -
Wind- - South
Pressure: 29.7 in 29.4 in -
Precipitation: 0.53 in    
Historical Graphs
 
 
Tabular Data for March 12, 2017
Time Temperature Dew Point Pressure Wind Wind Speed Wind Gust Humidity Rainfall Rate (Hourly) solar
00:01 68.2 °F 65.1 °F 29.6 in Calm   2.2 mph 90% 0 in 0 W/m2
00:06 68 °F 64.9 °F 29.6 in Calm     90% 0 in 0 W/m2
00:11 67.8 °F 65.1 °F 29.6 in Calm     91% 0 in 0 W/m2
00:16 67.6 °F 65.3 °F 29.6 in Calm     92% 0 in 0 W/m2
00:21 67.5 °F 65.1 °F 29.6 in Calm   2.2 mph 92% 0 in 0 W/m2
00:26 67.3 °F 64.9 °F 29.6 in Calm   2.2 mph 92% 0 in 0 W/m2
00:31 67.1 °F 64.8 °F 29.6 in Calm     92% 0 in 0 W/m2
00:36 66.9 °F 64.6 °F 29.6 in Calm     92% 0 in 0 W/m2
00:41 66.7 °F 64.8 °F 29.6 in Calm     93% 0 in 0 W/m2
00:46 66.6 °F 64.6 °F 29.6 in Calm     93% 0 in 0 W/m2
00:51 66.4 °F 64.6 °F 29.6 in Calm     94% 0 in 0 W/m2
00:56 66.4 °F 64.6 °F 29.6 in Calm     94% 0 in 0 W/m2
01:01 66 °F 64.6 °F 29.6 in Calm     95% 0 in 0 W/m2
01:06 65.7 °F 64.2 °F 29.6 in Calm     95% 0 in 0 W/m2
01:11 65.5 °F 64 °F 29.6 in Calm     95% 0 in 0 W/m2
01:16 65.5 °F 64 °F 29.6 in Calm     95% 0 in 0 W/m2
01:21 65.5 °F 64.2 °F 29.6 in NNW 0.7 mph 2.2 mph 96% 0 in 0 W/m2
01:26 65.3 °F 64.2 °F 29.6 in Calm   2.2 mph 96% 0 in 0 W/m2
01:31 65.3 °F 64.2 °F 29.6 in Calm   2.2 mph 96% 0 in 0 W/m2
01:36 65.1 °F 64.2 °F 29.6 in Calm   1.6 mph 97% 0 in 0 W/m2
01:41 65.3 °F 64.6 °F 29.6 in Calm     97% 0 in 0 W/m2
01:46 65.3 °F 64.6 °F 29.6 in Calm     97% 0 in 0 W/m2
01:51 65.1 °F 64.6 °F 29.6 in Calm     98% 0 in 0 W/m2
01:56 65.1 °F 64.6 °F 29.6 in Calm     98% 0 in 0 W/m2
02:01 65.3 °F 64.8 °F 29.6 in Calm     98% 0 in 0 W/m2
02:06 65.3 °F 64.8 °F 29.6 in Calm     98% 0 in 0 W/m2
02:11 65.3 °F 64.8 °F 29.6 in Calm     98% 0 in 0 W/m2
02:16 65.1 °F 64.6 °F 29.6 in Calm     98% 0 in 0 W/m2
02:21 64.9 °F 64.4 °F 29.6 in Calm     98% 0 in 0 W/m2
02:26 64.9 °F 64.4 °F 29.6 in Calm     98% 0 in 0 W/m2
02:31 64.9 °F 64.8 °F 29.6 in Calm   3.8 mph 99% 0 in 0 W/m2
02:36 64.9 °F 64.8 °F 29.6 in Calm   3.8 mph 99% 0 in 0 W/m2
02:41 64.9 °F 64.8 °F 29.6 in Calm   1.6 mph 99% 0 in 0 W/m2
02:46 64.9 °F 64.8 °F 29.6 in Calm     99% 0 in 0 W/m2
02:51 64.9 °F 64.8 °F 29.6 in Calm   1.6 mph 99% 0 in 0 W/m2
02:56 64.8 °F 64.6 °F 29.6 in Calm   1.6 mph 99% 0 in 0 W/m2
03:01 64.8 °F 64.6 °F 29.6 in Calm     99% 0 in 0 W/m2
03:06 64.8 °F 64.6 °F 29.6 in Calm   0.7 mph 99% 0 in 0 W/m2
03:11 64.9 °F 64.8 °F 29.6 in Calm   0.7 mph 99% 0 in 0 W/m2
03:16 64.9 °F 64.8 °F 29.6 in Calm   3.1 mph 99% 0 in 0 W/m2
03:21 64.9 °F 64.8 °F 29.6 in Calm   3.1 mph 99% 0 in 0 W/m2
03:26 64.8 °F 64.6 °F 29.6 in Calm     99% 0 in 0 W/m2
03:31 64.9 °F 64.8 °F 29.6 in Calm     99% 0 in 0 W/m2
03:36 64.9 °F 64.8 °F 29.6 in Calm     99% 0 in 0 W/m2
03:41 64.9 °F 64.8 °F 29.6 in Calm     99% 0 in 0 W/m2
03:46 64.9 °F 64.8 °F 29.6 in Calm     99% 0 in 0 W/m2
03:51 64.9 °F 64.8 °F 29.6 in Calm     99% 0 in 0 W/m2
03:56 64.9 °F 64.8 °F 29.6 in Calm     99% 0 in 0 W/m2
04:01 64.8 °F 64.6 °F 29.6 in Calm     99% 0 in 0 W/m2
04:06 64.6 °F 64.2 °F 29.6 in Calm     99% 0 in 0 W/m2
04:11 64.4 °F 64 °F 29.6 in Calm     99% 0 in 0 W/m2
04:16 64.4 °F 64 °F 29.6 in Calm     99% 0 in 0 W/m2
04:21 64.4 °F 64 °F 29.6 in Calm     99% 0 in 0 W/m2
04:26 64.4 °F 64 °F 29.6 in Calm     99% 0 in 0 W/m2
04:31 64.4 °F 64 °F 29.6 in Calm     99% 0 in 0 W/m2
04:36 64.2 °F 63.3 °F 29.6 in Calm     97% 0 in 0 W/m2
04:41 64.4 °F 64 °F 29.6 in Calm   3.8 mph 99% 0 in 0 W/m2
04:46 64.4 °F 64 °F 29.6 in Calm   3.8 mph 99% 0 in 0 W/m2
04:51 64.4 °F 64 °F 29.6 in Calm     99% 0 in 0 W/m2
04:56 64.2 °F 63.3 °F 29.6 in Calm     97% 0 in 0 W/m2
05:01 64.2 °F 63.3 °F 29.6 in Calm     97% 0 in 0 W/m2
05:06 64.2 °F 63.3 °F 29.6 in Calm     97% 0 in 0 W/m2
05:11 63.9 °F 63 °F 29.6 in Calm     97% 0 in 0 W/m2
05:16 63.9 °F 63 °F 29.6 in Calm     97% 0 in 0 W/m2
05:21 64 °F 63.1 °F 29.6 in Calm     97% 0 in 0 W/m2
05:26 64.2 °F 63.3 °F 29.6 in Calm     97% 0 in 0 W/m2
05:31 64.4 °F 64 °F 29.6 in Calm     99% 0 in 0 W/m2
05:36 64.2 °F 63.3 °F 29.6 in Calm     97% 0 in 0 W/m2
05:41 63.9 °F 63 °F 29.6 in Calm     97% 0 in 0 W/m2
05:46 63.5 °F 62.8 °F 29.6 in Calm     97% 0 in 0 W/m2
05:51 63.5 °F 62.8 °F 29.6 in Calm     97% 0 in 0 W/m2
05:56 63.5 °F 62.8 °F 29.6 in Calm     97% 0 in 0 W/m2
06:01 63.7 °F 62.8 °F 29.6 in Calm     97% 0 in 0 W/m2
06:06 63.9 °F 63 °F 29.6 in Calm     97% 0 in 0 W/m2
06:11 63.7 °F 62.8 °F 29.6 in Calm     97% 0 in 0 W/m2
06:16 63.7 °F 62.8 °F 29.6 in Calm     97% 0 in 0 W/m2
06:21 63.9 °F 63 °F 29.6 in Calm     97% 0 in 0 W/m2
06:26 63.9 °F 63 °F 29.6 in Calm     97% 0 in 0 W/m2
06:31 64 °F 63.1 °F 29.6 in Calm     97% 0 in 0 W/m2
06:36 64.2 °F 63.3 °F 29.6 in Calm     97% 0 in 0 W/m2
06:41 64.2 °F 63.3 °F 29.6 in Calm     97% 0 in 0 W/m2
06:46 64.2 °F 63.3 °F 29.6 in Calm     97% 0 in 0 W/m2
06:51 64.2 °F 63.3 °F 29.6 in Calm     97% 0 in 0 W/m2
06:57 64.2 °F 63.3 °F 29.6 in Calm     97% 0 in 0 W/m2
07:03 64.2 °F 63.3 °F 29.6 in Calm     97% 0 in 0 W/m2
07:08 64.2 °F 63.3 °F 29.6 in Calm     97% 0 in 2 W/m2
07:13 64.2 °F 63.3 °F 29.6 in Calm     97% 0 in 4 W/m2
07:18 64.4 °F 64 °F 29.6 in Calm     99% 0 in 6 W/m2
07:23 64.4 °F 64 °F 29.6 in Calm     99% 0 in 11 W/m2
07:28 64.6 °F 64.2 °F 29.6 in Calm     99% 0 in 12 W/m2
07:33 64.6 °F 64.2 °F 29.6 in Calm     99% 0 in 23 W/m2
07:38 64.8 °F 64.6 °F 29.6 in Calm     99% 0 in 32 W/m2
07:43 64.8 °F 64.6 °F 29.6 in Calm     99% 0 in 43 W/m2
07:48 64.9 °F 64.8 °F 29.6 in Calm     99% 0 in 50 W/m2
07:53 65.5 °F 65.1 °F 29.6 in Calm     99% 0 in 79 W/m2
07:58 65.7 °F 65.5 °F 29.6 in Calm     99% 0 in 55 W/m2
08:04 65.8 °F 65.7 °F 29.6 in Calm     99% 0 in 67 W/m2
08:09 66.2 °F 65.8 °F 29.6 in Calm     99% 0 in 124 W/m2
08:14 66.2 °F 65.8 °F 29.6 in Calm     99% 0 in 127 W/m2
08:19 66.4 °F 66 °F 29.6 in Calm     99% 0 in 87 W/m2
08:24 66.4 °F 66 °F 29.6 in Calm   3.8 mph 99% 0 in 132 W/m2
08:29 66.9 °F 66.7 °F 29.6 in Calm   3.8 mph 99% 0 in 179 W/m2
08:34 68.5 °F 68.4 °F 29.6 in Calm     99% 0 in 241 W/m2
08:39 70.7 °F 70.2 °F 29.6 in Calm     98% 0.01 in 264 W/m2
08:44 72 °F 71.1 °F 29.6 in Calm     97% 0.01 in 274 W/m2
08:49 72.7 °F 71.4 °F 29.6 in Calm   3.1 mph 96% 0.01 in 285 W/m2
08:54 73.4 °F 71.1 °F 29.6 in Calm   3.1 mph 92% 0.01 in 294 W/m2
08:59 73.8 °F 69.1 °F 29.6 in North 2.2 mph 3.8 mph 85% 0.01 in 300 W/m2
09:04 73.2 °F 67.1 °F 29.6 in North 3.1 mph 6 mph 81% 0.01 in 299 W/m2
09:09 73.2 °F 67.5 °F 29.6 in North 3.1 mph 6 mph 82% 0.01 in 296 W/m2
09:14 73 °F 67.3 °F 29.6 in North 0.7 mph 4.5 mph 82% 0.01 in 302 W/m2
09:19 73.9 °F 68.2 °F 29.6 in North 3.1 mph 4.5 mph 82% 0.01 in 316 W/m2
09:24 74.1 °F 67.6 °F 29.6 in North 2.2 mph 6 mph 80% 0.01 in 332 W/m2
09:29 74.8 °F 68.4 °F 29.6 in NNW 2.2 mph 6.9 mph 80% 0.01 in 350 W/m2
09:34 75.9 °F 68.2 °F 29.6 in NNW 3.1 mph 6.9 mph 77% 0.01 in 364 W/m2
09:39 77 °F 68.2 °F 29.6 in NNW 0.7 mph 5.4 mph 74% 0 in 400 W/m2
09:44 78.3 °F 68.5 °F 29.6 in North 7.6 mph 10.7 mph 72% 0 in 423 W/m2
09:49 78.8 °F 65.7 °F 29.6 in North 4.5 mph 13 mph 64% 0 in 415 W/m2
10:05 81.3 °F 65.1 °F 29.6 in NNE 7.6 mph 9.2 mph 58% 0 in 443 W/m2
10:11 80.2 °F 64.8 °F 29.5 in NNE 6.9 mph 9.8 mph 59% 0 in 452 W/m2
10:16 80.2 °F 64.8 °F 29.6 in North 9.8 mph 13 mph 59% 0 in 476 W/m2
10:21 80.2 °F 65.1 °F 29.6 in North 4.5 mph 13 mph 60% 0 in 458 W/m2
10:26 81 °F 65.8 °F 29.5 in NNE 3.1 mph 13 mph 60% 0 in 462 W/m2
10:31 81.1 °F 64.6 °F 29.6 in NE 6 mph 14.5 mph 57% 0 in 523 W/m2
10:36 81 °F 64.2 °F 29.6 in NE 6 mph 14.5 mph 57% 0 in 494 W/m2
10:41 81 °F 64.8 °F 29.6 in NNE 6.9 mph 13 mph 58% 0 in 463 W/m2
10:46 81.1 °F 64.6 °F 29.6 in NE 4.5 mph 13 mph 57% 0 in 399 W/m2
10:51 81 °F 65.8 °F 29.5 in NNE 9.2 mph 12.1 mph 60% 0 in 440 W/m2
11:08 80.4 °F 64.8 °F 29.5 in NNE 3.8 mph 12.1 mph 59% 0 in 189 W/m2
11:13 80.6 °F 64 °F 29.5 in NNE 7.6 mph 11.4 mph 57% 0 in 158 W/m2
11:18 80.8 °F 64.8 °F 29.5 in NNE 3.8 mph 12.1 mph 58% 0 in 354 W/m2
11:23 81.3 °F 64.2 °F 29.5 in NNE 4.5 mph 12.1 mph 56% 0 in 455 W/m2
11:28 81.5 °F 64.8 °F 29.5 in NNE 4.5 mph 9.2 mph 57% 0 in 581 W/m2
11:33 81.9 °F 63.1 °F 29.5 in NNW 8.3 mph 14.5 mph 53% 0 in 597 W/m2
11:38 81.9 °F 63.7 °F 29.5 in North 6 mph 14.5 mph 54% 0 in 362 W/m2
11:43 82 °F 62.8 °F 29.5 in North 3.1 mph 12.1 mph 52% 0 in 442 W/m2
11:48 82.2 °F 63.3 °F 29.5 in North 8.3 mph 15.2 mph 53% 0 in 447 W/m2
11:53 82.2 °F 63.3 °F 29.5 in North 4.5 mph 15.2 mph 53% 0 in 537 W/m2
11:58 82.4 °F 63.1 °F 29.5 in NNE 6 mph 15.2 mph 52% 0 in 653 W/m2
12:03 82.9 °F 63.7 °F 29.5 in NNE 9.8 mph 15.2 mph 52% 0 in 515 W/m2
12:08 82.2 °F 63 °F 29.5 in NNE 6.9 mph 15.2 mph 52% 0 in 626 W/m2
12:13 82.6 °F 63.9 °F 29.5 in North 3.8 mph 15.2 mph 53% 0 in 232 W/m2
12:18 82.8 °F 63.3 °F 29.5 in NNE 9.2 mph 13.6 mph 52% 0 in 704 W/m2
12:23 82.4 °F 62.4 °F 29.5 in NNE 4.5 mph 13.6 mph 51% 0 in 753 W/m2
12:28 82.8 °F 62.8 °F 29.5 in North 7.6 mph 15.9 mph 51% 0 in 768 W/m2
12:33 82.2 °F 62.2 °F 29.5 in North 6.9 mph 19.7 mph 51% 0 in 776 W/m2
12:38 82 °F 62.8 °F 29.5 in NNE 6 mph 19.7 mph 52% 0 in 877 W/m2
12:43 82.8 °F 62.8 °F 29.5 in NNE 9.2 mph 18.3 mph 51% 0 in 825 W/m2
12:48 82.9 °F 63.7 °F 29.5 in North 5.4 mph 15.2 mph 52% 0 in 870 W/m2
12:53 83.5 °F 63.5 °F 29.5 in NNW 9.8 mph 17.4 mph 51% 0 in 859 W/m2
12:58 82.6 °F 63.1 °F 29.5 in North 6 mph 17.4 mph 52% 0 in 844 W/m2
13:03 82.9 °F 63 °F 29.5 in NNE 11.4 mph 22.8 mph 51% 0 in 544 W/m2
13:08 82 °F 63.3 °F 29.5 in NNE 6.9 mph 22.8 mph 53% 0 in 889 W/m2
13:13 82.8 °F 63.3 °F 29.5 in NNE 10.7 mph 22.8 mph 52% 0 in 688 W/m2
13:18 82.2 °F 63.3 °F 29.5 in NNE 13.6 mph 18.3 mph 53% 0 in 542 W/m2
13:23 81.9 °F 63.7 °F 29.5 in NNE 8.3 mph 18.3 mph 54% 0 in 794 W/m2
13:28 82 °F 63.3 °F 29.5 in North 8.3 mph 15.9 mph 53% 0 in 619 W/m2
13:33 81.3 °F 63.1 °F 29.5 in North 6.9 mph 15.2 mph 54% 0 in 530 W/m2
13:38 81.3 °F 63.1 °F 29.5 in NNE 9.2 mph 15.9 mph 54% 0 in 795 W/m2
13:43 81.7 °F 63.5 °F 29.5 in NNE 9.8 mph 15.9 mph 54% 0 in 318 W/m2
13:48 80.4 °F 63.3 °F 29.5 in NNE 9.2 mph 17.4 mph 56% 0 in 186 W/m2
13:53 78.8 °F 64.2 °F 29.5 in NNE 6 mph 17.4 mph 61% 0 in 116 W/m2
13:58 77 °F 64.8 °F 29.5 in North 4.5 mph 13.6 mph 66% 0.01 in 74 W/m2
14:03 75.4 °F 65.8 °F 29.5 in North 10.7 mph 21.3 mph 72% 0.01 in 50 W/m2
14:08 73.8 °F 65.8 °F 29.5 in North 6.9 mph 21.3 mph 76% 0.02 in 43 W/m2
14:13 72.7 °F 66.2 °F 29.5 in North 5.4 mph 15.2 mph 80% 0.04 in 47 W/m2
14:18 72.1 °F 66 °F 29.5 in North 5.4 mph 11.4 mph 81% 0.04 in 54 W/m2
14:23 72 °F 66.2 °F 29.5 in NNE 4.5 mph 9.8 mph 82% 0.04 in 63 W/m2
14:28 71.8 °F 66.4 °F 29.5 in NNE 0.7 mph 9.8 mph 83% 0.05 in 91 W/m2
14:33 72 °F 66.6 °F 29.5 in NNE 0.7 mph 6 mph 83% 0.05 in 138 W/m2
14:38 72.3 °F 67.3 °F 29.5 in NNE 0.7 mph 3.8 mph 84% 0.05 in 199 W/m2
14:43 72.9 °F 67.8 °F 29.5 in North 1.6 mph 3.8 mph 84% 0.05 in 227 W/m2
14:48 73.8 °F 69.1 °F 29.5 in North 0.7 mph 3.8 mph 85% 0.05 in 222 W/m2
14:53 74.5 °F 69.1 °F 29.5 in NNE 1.6 mph 3.8 mph 83% 0.05 in 238 W/m2
14:58 75.4 °F 68.5 °F 29.5 in NE 1.6 mph 3.1 mph 79% 0.04 in 238 W/m2
15:03 76.5 °F 68.4 °F 29.5 in NNE 2.2 mph 5.4 mph 76% 0.04 in 251 W/m2
15:08 77.2 °F 68.4 °F 29.5 in North 1.6 mph 5.4 mph 74% 0.01 in 275 W/m2
15:13 77.9 °F 68.2 °F 29.5 in NNW 0.7 mph 3.8 mph 72% 0.01 in 340 W/m2
15:18 78.3 °F 67.3 °F 29.4 in NNW 1.6 mph 5.4 mph 69% 0.01 in 380 W/m2
15:23 78.4 °F 66.6 °F 29.4 in NNW 2.2 mph 5.4 mph 67% 0.01 in 273 W/m2
15:28 78.6 °F 67.6 °F 29.4 in Calm   4.5 mph 69% 0 in 294 W/m2
15:33 79 °F 66.7 °F 29.4 in Calm   4.5 mph 66% 0 in 294 W/m2
15:38 80.4 °F 68.2 °F 29.4 in Calm   4.5 mph 66% 0 in 296 W/m2
15:43 81.1 °F 67.8 °F 29.4 in Calm   0.7 mph 64% 0 in 281 W/m2
15:48 80.8 °F 68 °F 29.4 in SSW 3.1 mph 5.4 mph 65% 0 in 279 W/m2
15:53 79.3 °F 67.8 °F 29.4 in South 3.1 mph 6 mph 68% 0 in 246 W/m2
15:58 78.6 °F 68.2 °F 29.4 in South 3.1 mph 6 mph 70% 0 in 203 W/m2
16:03 78.1 °F 68 °F 29.4 in SSW 2.2 mph 5.4 mph 71% 0 in 171 W/m2
16:08 77.7 °F 68 °F 29.4 in SSW 0.7 mph 4.5 mph 72% 0 in 150 W/m2
16:13 77.4 °F 68.5 °F 29.4 in SSW 6 mph 9.2 mph 74% 0 in 124 W/m2
16:18 75.7 °F 66.9 °F 29.4 in SSW 3.1 mph 9.2 mph 74% 0 in 130 W/m2
16:23 74.7 °F 66.9 °F 29.4 in SSW 1.6 mph 9.2 mph 77% 0 in 105 W/m2
16:28 73.8 °F 66.6 °F 29.4 in South 6.9 mph 9.8 mph 78% 0 in 82 W/m2
16:33 72.9 °F 66.7 °F 29.4 in SSW 5.4 mph 9.8 mph 81% 0 in 75 W/m2
16:38 72 °F 66.6 °F 29.4 in SSW 5.4 mph 9.8 mph 83% 0 in 57 W/m2
16:43 71.4 °F 66.9 °F 29.4 in SSW 5.4 mph 8.3 mph 86% 0 in 56 W/m2
16:48 71.4 °F 66.9 °F 29.4 in SSW 3.8 mph 9.2 mph 86% 0 in 73 W/m2
16:53 71.6 °F 66.9 °F 29.4 in SSW 3.1 mph 9.2 mph 85% 0 in 66 W/m2
16:58 71.4 °F 67.5 °F 29.4 in SW 4.5 mph 8.3 mph 87% 0.02 in 49 W/m2
17:03 70.9 °F 67.5 °F 29.4 in SW 5.4 mph 8.3 mph 89% 0.04 in 49 W/m2
17:08 70.3 °F 67.3 °F 29.4 in WSW 4.5 mph 8.3 mph 90% 0.04 in 47 W/m2
17:13 70.2 °F 67.5 °F 29.4 in SW 4.5 mph 8.3 mph 91% 0.07 in 43 W/m2
17:18 69.8 °F 67.5 °F 29.4 in SW 5.4 mph 8.3 mph 92% 0.09 in 40 W/m2
17:23 69.3 °F 67.5 °F 29.4 in SW 6 mph 9.8 mph 94% 0.12 in 42 W/m2
17:28 69.1 °F 67.6 °F 29.4 in SW 6.9 mph 10.7 mph 95% 0.13 in 45 W/m2
17:33 68.9 °F 67.6 °F 29.4 in SSW 6.9 mph 10.7 mph 96% 0.14 in 45 W/m2
17:38 68.7 °F 67.6 °F 29.4 in SW 3.8 mph 11.4 mph 96% 0.17 in 43 W/m2
17:43 68.5 °F 67.6 °F 29.4 in SW 6 mph 11.4 mph 97% 0.19 in 37 W/m2
17:48 68.4 °F 67.5 °F 29.4 in SW 6 mph 10.7 mph 97% 0.2 in 30 W/m2
17:54 68.2 °F 67.3 °F 29.4 in SW 5.4 mph 11.4 mph 97% 0.22 in 24 W/m2
17:59 68.2 °F 67.6 °F 29.4 in SW 6 mph 12.1 mph 98% 0.22 in 18 W/m2
18:04 68.2 °F 67.6 °F 29.4 in SW 7.6 mph 12.1 mph 98% 0.24 in 14 W/m2
18:09 68.2 °F 67.8 °F 29.4 in SW 6 mph 11.4 mph 99% 0.26 in 13 W/m2
18:14 68 °F 67.6 °F 29.5 in SW 4.5 mph 11.4 mph 99% 0.25 in 10 W/m2
18:19 67.6 °F 67.5 °F 29.5 in SW 6.9 mph 12.1 mph 99% 0.27 in 7 W/m2
18:24 67.5 °F 67.3 °F 29.5 in SW 6.9 mph 12.1 mph 99% 0.27 in 9 W/m2
18:29 67.3 °F 66.9 °F 29.4 in SSW 3.8 mph 11.4 mph 99% 0.27 in 11 W/m2
18:34 66.9 °F 66.7 °F 29.5 in SSW 5.4 mph 9.8 mph 99% 0.25 in 9 W/m2
18:39 66.9 °F 66.7 °F 29.5 in SSW 4.5 mph 7.6 mph 99% 0.24 in 6 W/m2
18:44 66.9 °F 66.7 °F 29.5 in SW 3.1 mph 7.6 mph 99% 0.22 in 3 W/m2
18:49 66.9 °F 66.7 °F 29.5 in SW 3.1 mph 6 mph 99% 0.22 in 2 W/m2
18:54 66.9 °F 66.7 °F 29.5 in WSW 1.6 mph 6 mph 99% 0.2 in 1 W/m2
18:59 67.3 °F 66.9 °F 29.5 in SW 2.2 mph 6 mph 99% 0.18 in 0 W/m2
19:04 67.6 °F 67.5 °F 29.5 in SW 3.8 mph 6.9 mph 99% 0.17 in 0 W/m2
19:09 67.6 °F 67.5 °F 29.5 in SW 7.6 mph 11.4 mph 99% 0.17 in 0 W/m2
19:14 67.1 °F 66.7 °F 29.5 in SW 6.9 mph 13.6 mph 99% 0.12 in 0 W/m2
19:19 66.7 °F 66.6 °F 29.5 in SW 4.5 mph 13.6 mph 99% 0.09 in 0 W/m2
19:24 66.4 °F 66 °F 29.5 in SW 8.3 mph 12.1 mph 99% 0.08 in 0 W/m2
19:29 66.4 °F 66 °F 29.5 in SW 6.9 mph 12.1 mph 99% 0.07 in 0 W/m2
19:34 66.2 °F 65.8 °F 29.5 in WSW 5.4 mph 13.6 mph 99% 0.07 in 0 W/m2
19:39 66 °F 65.8 °F 29.5 in WSW 6 mph 13.6 mph 99% 0.06 in 0 W/m2
19:44 66 °F 65.8 °F 29.5 in West 5.4 mph 13.6 mph 99% 0.06 in 0 W/m2
19:49 65.8 °F 65.7 °F 29.5 in WSW 1.6 mph 9.2 mph 99% 0.05 in 0 W/m2
19:54 65.8 °F 65.7 °F 29.5 in WSW 8.3 mph 9.8 mph 99% 0.04 in 0 W/m2
19:59 66 °F 65.8 °F 29.5 in West 0.7 mph 9.8 mph 99% 0.04 in 0 W/m2
20:04 66 °F 65.8 °F 29.5 in West 2.2 mph 8.3 mph 99% 0.02 in 0 W/m2
20:09 66 °F 65.8 °F 29.5 in WNW 1.6 mph 8.3 mph 99% 0.01 in 0 W/m2
20:14 66 °F 65.8 °F 29.5 in Calm   9.8 mph 99% 0.01 in 0 W/m2
20:19 66 °F 65.8 °F 29.6 in WSW 4.5 mph 9.8 mph 99% 0 in 0 W/m2
20:24 65.8 °F 65.7 °F 29.6 in West 6.9 mph 10.7 mph 99% 0 in 0 W/m2
20:29 65.7 °F 65.5 °F 29.6 in West 4.5 mph 10.7 mph 99% 0 in 0 W/m2
20:34 65.7 °F 65.5 °F 29.6 in WSW 3.1 mph 9.2 mph 99% 0 in 0 W/m2
20:39 65.5 °F 65.1 °F 29.6 in WSW 4.5 mph 8.3 mph 99% 0 in 0 W/m2
20:44 65.3 °F 64.9 °F 29.6 in WSW 5.4 mph 7.6 mph 99% 0 in 0 W/m2
20:49 65.1 °F 64.9 °F 29.6 in SW 11.4 mph 15.2 mph 99% 0 in 0 W/m2
20:54 64.9 °F 64.8 °F 29.6 in SW 8.3 mph 15.2 mph 99% 0 in 0 W/m2
20:59 64.8 °F 64.6 °F 29.6 in SW 3.8 mph 15.2 mph 99% 0 in 0 W/m2
21:04 64.6 °F 64.2 °F 29.6 in SW 6.9 mph 12.1 mph 99% 0 in 0 W/m2
21:09 63.9 °F 63 °F 29.6 in SW 7.6 mph 13 mph 97% 0 in 0 W/m2
21:14 64.4 °F 64 °F 29.6 in SW 6.9 mph 14.5 mph 99% 0 in 0 W/m2
21:19 64.2 °F 63.3 °F 29.6 in SW 6 mph 14.5 mph 97% 0 in 0 W/m2
21:24 64.2 °F 63.3 °F 29.6 in SSW 7.6 mph 14.5 mph 97% 0.01 in 0 W/m2
21:29 64.2 °F 63.3 °F 29.6 in SW 6 mph 12.1 mph 97% 0.01 in 0 W/m2
21:34 64.2 °F 63.3 °F 29.6 in SW 6.9 mph 11.4 mph 97% 0.01 in 0 W/m2
21:39 64.2 °F 63.3 °F 29.6 in SW 2.2 mph 9.8 mph 97% 0.01 in 0 W/m2
21:44 64.2 °F 63.3 °F 29.6 in SW 4.5 mph 9.8 mph 97% 0.01 in 0 W/m2
21:49 64.2 °F 63.3 °F 29.6 in WSW 1.6 mph 9.2 mph 97% 0.01 in 0 W/m2
21:54 64 °F 63.1 °F 29.6 in West 3.8 mph 9.2 mph 97% 0.01 in 0 W/m2
21:59 64 °F 63.1 °F 29.6 in West 5.4 mph 6.9 mph 97% 0.01 in 0 W/m2
22:04 64 °F 63.1 °F 29.6 in WSW 7.6 mph 9.8 mph 97% 0.01 in 0 W/m2
22:09 63.7 °F 62.8 °F 29.6 in WSW 3.8 mph 9.8 mph 97% 0.01 in 0 W/m2
22:14 63.5 °F 62.8 °F 29.6 in West 3.8 mph 9.8 mph 97% 0.01 in 0 W/m2
22:19 63.5 °F 62.8 °F 29.6 in WSW 3.1 mph 9.8 mph 97% 0.01 in 0 W/m2
22:24 63.5 °F 62.8 °F 29.6 in SW 6 mph 8.3 mph 97% 0 in 0 W/m2
22:29 63.7 °F 62.8 °F 29.6 in SW 1.6 mph 8.3 mph 97% 0 in 0 W/m2
22:34 63.5 °F 62.8 °F 29.6 in SW 13 mph 15.9 mph 97% 0 in 0 W/m2
22:39 63.3 °F 62.4 °F 29.6 in SW 3.8 mph 15.9 mph 97% 0 in 0 W/m2
22:44 63.5 °F 62.8 °F 29.6 in SW 6 mph 13 mph 97% 0 in 0 W/m2
22:49 63.5 °F 62.8 °F 29.6 in SSW 5.4 mph 9.8 mph 97% 0 in 0 W/m2
22:54 63.3 °F 62.4 °F 29.6 in SSW 6 mph 9.8 mph 97% 0 in 0 W/m2
22:59 63.3 °F 62.4 °F 29.7 in SW 6 mph 11.4 mph 97% 0 in 0 W/m2
23:04 63.1 °F 62.2 °F 29.7 in SSW 4.5 mph 11.4 mph 97% 0 in 0 W/m2
23:09 63.1 °F 62.2 °F 29.7 in SW 3.8 mph 10.7 mph 97% 0 in 0 W/m2
23:15 63.1 °F 62.1 °F 29.7 in SSW 5.4 mph 11.4 mph 96% 0 in 0 W/m2
23:20 63.1 °F 62.1 °F 29.7 in SSW 6 mph 11.4 mph 96% 0 in 0 W/m2
23:25 63.1 °F 62.1 °F 29.7 in SSW 4.5 mph 10.7 mph 96% 0 in 0 W/m2
23:30 63.3 °F 61.9 °F 29.7 in SW 5.4 mph 9.2 mph 95% 0 in 0 W/m2
23:35 63.1 °F 61.7 °F 29.7 in SSW 5.4 mph 8.3 mph 95% 0 in 0 W/m2
23:40 63.3 °F 61.9 °F 29.7 in South 4.5 mph 8.3 mph 95% 0 in 0 W/m2
23:45 63.3 °F 61.9 °F 29.7 in SSW 5.4 mph 7.6 mph 95% 0 in 0 W/m2
23:50 63.3 °F 61.9 °F 29.7 in SSW 2.2 mph 6.9 mph 95% 0 in 0 W/m2
23:55 63.3 °F 61.9 °F 29.7 in SSW 3.8 mph 6.9 mph 95% 0 in 0 W/m2
Northern Hawkes Bay. New Zealand Historic Data
Compliments of Weather Underground - 2 mb